Time;durP1;ratioP1;P1;durP2;ratioP2;P2;SDS_P1;SDS_P2;PMS_P1;PMS_P2;Temp;Humidity;BMP_temperature;BMP_pressure;BME280_temperature;BME280_humidity;BME280_pressure;Samples;Min_cycle;Max_cycle;Signal;HPM_P1;HPM_P2
2021/08/02 00:02:02;;;;;;;3.15;1.17;;;;;;;16.02;87.36;97285.36;1705636;83;21874;-78
2021/08/02 00:04:41;;;;;;;1.17;1.02;;;;;;;16.07;87.44;97290.64;1707083;83;20983;-78
2021/08/02 00:07:08;;;;;;;1.55;1.35;;;;;;;16.13;87.50;97295.32;1707082;84;21120;-74
2021/08/02 00:09:35;;;;;;;1.95;1.32;;;;;;;16.21;87.37;97296.39;1707194;83;21434;-74
2021/08/02 00:12:09;;;;;;;1.67;1.20;;;;;;;16.25;87.29;97298.14;1706996;82;21109;-73
2021/08/02 00:14:36;;;;;;;1.60;1.20;;;;;;;16.30;87.26;97295.19;1705318;83;21334;-78
2021/08/02 00:17:02;;;;;;;2.98;1.15;;;;;;;16.35;87.24;97304.56;1706964;83;21557;-79
2021/08/02 00:19:28;;;;;;;1.65;1.22;;;;;;;16.39;87.09;97307.42;1707128;83;21041;-73
2021/08/02 00:21:54;;;;;;;1.90;1.37;;;;;;;16.43;87.06;97309.73;1706922;83;20946;-78
2021/08/02 00:24:20;;;;;;;2.83;1.50;;;;;;;16.42;86.99;97314.17;1707255;82;21655;-78
2021/08/02 00:26:47;;;;;;;1.82;1.07;;;;;;;16.42;86.99;97315.53;1707053;83;21273;-73
2021/08/02 00:29:13;;;;;;;5.10;2.55;;;;;;;16.43;86.87;97319.30;1710603;83;21018;-73
2021/08/02 00:31:39;;;;;;;3.05;1.57;;;;;;;16.42;86.98;97317.70;1707033;84;20854;-78
2021/08/02 00:34:05;;;;;;;1.67;1.37;;;;;;;16.43;87.03;97315.77;1709356;83;21481;-79
2021/08/02 00:36:40;;;;;;;3.40;1.40;;;;;;;16.39;87.30;97311.52;1686355;83;20862;-79
2021/08/02 00:39:14;;;;;;;2.80;1.52;;;;;;;16.40;87.27;97319.15;1709410;83;22083;-72
2021/08/02 00:42:10;;;;;;;2.87;1.55;;;;;;;16.38;87.52;97315.39;1706954;83;21411;-74
2021/08/02 00:45:21;;;;;;;2.20;1.70;;;;;;;16.28;87.28;97315.23;1707265;84;20970;-74
2021/08/02 00:47:58;;;;;;;2.50;1.42;;;;;;;16.23;87.48;97323.62;1706918;83;20914;-79
2021/08/02 00:50:27;;;;;;;4.67;1.65;;;;;;;16.16;87.34;97326.11;1686963;84;21402;-73
2021/08/02 00:53:10;;;;;;;2.02;1.52;;;;;;;15.95;88.09;97319.80;1706802;84;21410;-74
2021/08/02 00:55:40;;;;;;;4.70;2.62;;;;;;;15.62;88.11;97323.20;1705844;83;21029;-78
2021/08/02 00:58:10;;;;;;;6.58;2.95;;;;;;;15.29;87.69;97329.01;1706905;83;20921;-78
2021/08/02 01:00:36;;;;;;;3.90;2.87;;;;;;;15.17;87.43;97330.50;1707077;82;20974;-79
2021/08/02 01:03:07;;;;;;;7.95;2.70;;;;;;;15.14;87.58;97337.19;1706792;83;20866;-73
2021/08/02 01:05:38;;;;;;;3.92;2.70;;;;;;;15.11;87.67;97341.34;1706791;82;21125;-73
2021/08/02 01:08:07;;;;;;;4.03;2.42;;;;;;;15.14;87.62;97341.28;1706848;82;21030;-78
2021/08/02 01:10:35;;;;;;;6.05;2.47;;;;;;;15.07;87.76;97347.80;1707070;82;21025;-79
2021/08/02 01:13:06;;;;;;;6.25;3.02;;;;;;;15.04;87.71;97340.23;1706699;83;20986;-78
2021/08/02 01:15:32;;;;;;;3.52;2.62;;;;;;;15.08;87.61;97343.37;1707303;83;21013;-73
2021/08/02 01:17:58;;;;;;;10.60;2.98;;;;;;;15.04;86.77;97345.70;1707118;84;21109;-78
2021/08/02 01:20:24;;;;;;;5.05;3.50;;;;;;;15.10;87.11;97349.30;1707162;82;20941;-79
2021/08/02 01:22:50;;;;;;;4.55;3.12;;;;;;;15.11;87.14;97339.98;1706927;82;21002;-73
2021/08/02 01:25:40;;;;;;;5.60;3.02;;;;;;;15.19;86.98;97349.27;1707135;83;21037;-79
2021/08/02 01:28:23;;;;;;;6.60;3.92;;;;;;;15.29;86.99;97355.73;1706996;84;21336;-78
2021/08/02 01:30:53;;;;;;;5.78;4.17;;;;;;;15.32;86.58;97348.28;1707111;83;22036;-79
2021/08/02 01:33:28;;;;;;;4.62;4.00;;;;;;;15.30;86.51;97348.37;1706347;82;20950;-74
2021/08/02 01:35:51;;;;;;;6.25;4.00;;;;;;;15.28;86.55;97342.42;1698908;84;21010;-74
2021/08/02 01:38:17;;;;;;;13.50;4.05;;;;;;;15.24;86.06;97338.19;1699031;83;20967;-79
2021/08/02 01:40:43;;;;;;;5.00;3.85;;;;;;;15.30;85.98;97342.92;1679400;84;21564;-74
2021/08/02 01:43:09;;;;;;;6.08;3.10;;;;;;;15.31;85.99;97347.25;1699045;84;21693;-73
2021/08/02 01:45:55;;;;;;;5.42;2.85;;;;;;;15.32;85.79;97344.19;1699179;84;20866;-75
2021/08/02 01:49:05;;;;;;;6.12;3.25;;;;;;;15.30;86.11;97345.09;1698975;84;21412;-79
2021/08/02 01:51:44;;;;;;;5.72;3.12;;;;;;;15.26;85.98;97350.94;1697347;84;20994;-78
2021/08/02 01:54:32;;;;;;;3.58;2.80;;;;;;;15.27;86.14;97352.54;1698890;82;21034;-78
2021/08/02 01:57:21;;;;;;;5.65;2.90;;;;;;;15.34;85.77;97354.20;1699039;84;21403;-74
2021/08/02 02:00:00;;;;;;;4.20;3.10;;;;;;;15.26;85.87;97364.59;1699306;84;20935;-72
2021/08/02 02:02:26;;;;;;;5.17;2.92;;;;;;;15.23;85.89;97355.13;1699018;84;21014;-73
2021/08/02 02:05:17;;;;;;;3.02;2.27;;;;;;;15.28;86.07;97360.96;1699339;84;21480;-79
2021/08/02 02:08:06;;;;;;;6.75;3.58;;;;;;;15.32;85.90;97366.02;1699160;84;21033;-73
2021/08/02 02:10:38;;;;;;;6.03;3.30;;;;;;;15.33;85.59;97369.55;1699320;83;21761;-79
2021/08/02 02:13:01;;;;;;;4.53;3.33;;;;;;;15.33;85.71;97364.89;1698465;84;20937;-73
2021/08/02 02:15:27;;;;;;;8.55;3.10;;;;;;;15.32;85.37;97370.68;1699284;84;20982;-74
2021/08/02 02:17:53;;;;;;;6.50;2.87;;;;;;;15.31;85.29;97372.61;1699133;84;20874;-79
2021/08/02 02:20:20;;;;;;;4.28;3.10;;;;;;;15.29;85.74;97362.56;1699236;82;20879;-75
2021/08/02 02:22:46;;;;;;;4.28;2.35;;;;;;;15.27;86.19;97364.82;1698983;83;21448;-74
2021/08/02 02:25:12;;;;;;;5.47;3.10;;;;;;;15.27;85.72;97361.30;1699083;83;20937;-79
2021/08/02 02:27:38;;;;;;;3.83;2.55;;;;;;;15.22;87.36;97357.63;1699104;84;20969;-79
2021/08/02 02:30:05;;;;;;;5.42;2.65;;;;;;;15.22;86.17;97365.02;1699267;83;20922;-74
2021/08/02 02:32:31;;;;;;;5.50;2.80;;;;;;;15.12;86.06;97373.52;1699084;84;21013;-79
2021/08/02 02:34:57;;;;;;;8.30;3.30;;;;;;;15.14;86.46;97378.91;1703606;82;21121;-74
2021/08/02 02:37:24;;;;;;;4.85;2.40;;;;;;;15.13;86.35;97380.61;1708963;82;20913;-79
2021/08/02 02:39:52;;;;;;;6.03;3.22;;;;;;;15.16;86.48;97384.84;1686761;84;21390;-78
2021/08/02 02:42:20;;;;;;;12.88;3.67;;;;;;;15.07;86.56;97396.91;1707021;82;21573;-79
2021/08/02 02:44:46;;;;;;;8.30;3.50;;;;;;;15.04;86.71;97402.45;1706946;83;20958;-78
2021/08/02 02:47:12;;;;;;;4.05;2.90;;;;;;;15.07;86.44;97404.52;1707151;82;21255;-73
2021/08/02 02:49:38;;;;;;;5.10;3.55;;;;;;;15.03;86.65;97404.91;1706671;84;20938;-73
2021/08/02 02:52:05;;;;;;;3.55;3.00;;;;;;;14.98;86.77;97407.83;1706929;84;21563;-79
2021/08/02 02:54:32;;;;;;;6.15;2.75;;;;;;;14.99;86.74;97406.70;1706635;84;21422;-79
2021/08/02 02:56:58;;;;;;;5.15;2.92;;;;;;;15.03;86.86;97412.30;1710743;83;21069;-79
2021/08/02 02:59:25;;;;;;;4.12;3.08;;;;;;;15.07;86.85;97405.09;1706867;84;21206;-79
2021/08/02 03:01:51;;;;;;;4.83;3.10;;;;;;;15.11;86.83;97408.76;1706867;84;20974;-78
2021/08/02 03:04:19;;;;;;;3.72;2.72;;;;;;;15.18;86.73;97411.23;1686555;84;21500;-78
2021/08/02 03:06:45;;;;;;;4.40;3.37;;;;;;;15.17;86.78;97415.09;1707007;82;21442;-73
2021/08/02 03:09:11;;;;;;;5.40;2.47;;;;;;;15.10;86.60;97422.97;1706794;83;20842;-74
2021/08/02 03:11:37;;;;;;;4.12;2.70;;;;;;;15.11;86.62;97424.56;1686851;84;21069;-79
2021/08/02 03:14:03;;;;;;;9.60;3.77;;;;;;;15.02;86.51;97422.41;1706591;83;21618;-74
2021/08/02 03:16:29;;;;;;;15.78;8.33;;;;;;;14.99;86.81;97427.16;1707112;82;20961;-75
2021/08/02 03:18:55;;;;;;;37.25;15.32;;;;;;;14.98;86.80;97427.48;1706641;84;20962;-79
2021/08/02 03:21:21;;;;;;;32.50;12.80;;;;;;;14.97;86.68;97423.96;1707135;82;20878;-74
2021/08/02 03:24:10;;;;;;;11.70;5.53;;;;;;;15.00;86.42;97433.42;1706595;83;21217;-74
2021/08/02 03:26:41;;;;;;;7.45;5.12;;;;;;;14.95;86.27;97446.11;1707281;83;21005;-75
2021/08/02 03:29:20;;;;;;;6.85;5.45;;;;;;;14.97;86.25;97443.62;1707020;83;21100;-73
2021/08/02 03:31:52;;;;;;;10.15;5.33;;;;;;;15.00;86.25;97443.77;1707174;84;20930;-74
2021/08/02 03:34:22;;;;;;;5.12;3.55;;;;;;;15.04;85.94;97452.92;1706966;82;20954;-74
2021/08/02 03:36:48;;;;;;;3.95;2.80;;;;;;;15.05;86.09;97453.73;1700818;83;21335;-79
2021/08/02 03:39:15;;;;;;;4.37;2.95;;;;;;;14.95;86.17;97461.11;1702671;83;20985;-77
2021/08/02 03:41:42;;;;;;;5.47;2.72;;;;;;;14.95;86.27;97463.84;1699348;84;20982;-78
2021/08/02 03:44:11;;;;;;;5.72;3.00;;;;;;;14.98;86.25;97462.39;1698850;83;21045;-73
2021/08/02 03:46:38;;;;;;;4.97;2.72;;;;;;;14.98;86.18;97462.39;1702944;83;20959;-78
2021/08/02 03:49:03;;;;;;;5.35;2.47;;;;;;;15.03;86.18;97464.94;1699097;82;21327;-73
2021/08/02 03:51:35;;;;;;;6.65;2.65;;;;;;;15.06;86.02;97464.31;1699225;83;20874;-79
2021/08/02 03:54:01;;;;;;;4.80;2.83;;;;;;;15.08;85.84;97462.63;1698902;84;20962;-73
2021/08/02 03:56:27;;;;;;;4.25;2.92;;;;;;;15.08;85.75;97463.42;1699395;83;21468;-77
2021/08/02 03:58:53;;;;;;;5.92;3.00;;;;;;;15.10;85.68;97467.19;1699158;84;20867;-78
2021/08/02 04:01:18;;;;;;;4.28;2.90;;;;;;;15.10;85.55;97473.45;1699358;84;22037;-74
2021/08/02 04:03:44;;;;;;;3.25;2.30;;;;;;;15.13;85.59;97473.38;1698937;84;20906;-73
2021/08/02 04:06:10;;;;;;;3.10;2.50;;;;;;;15.17;85.61;97475.12;1699308;82;20993;-78
2021/08/02 04:08:36;;;;;;;8.88;7.62;;;;;;;15.21;85.61;97480.20;1699066;84;20855;-79
2021/08/02 04:11:02;;;;;;;16.10;14.30;;;;;;;15.26;85.58;97484.67;1699339;82;20887;-74
2021/08/02 04:13:28;;;;;;;8.55;7.08;;;;;;;15.28;85.62;97480.25;1699157;83;21105;-78
2021/08/02 04:15:54;;;;;;;7.00;2.92;;;;;;;15.30;85.53;97480.19;1699097;82;20973;-74
2021/08/02 04:18:20;;;;;;;5.75;2.67;;;;;;;15.34;85.23;97483.86;1699247;84;20942;-73
2021/08/02 04:20:46;;;;;;;3.35;2.58;;;;;;;15.31;85.27;97487.25;1699258;84;20875;-73
2021/08/02 04:23:12;;;;;;;4.90;3.15;;;;;;;15.31;85.11;97485.08;1699215;83;20930;-74
2021/08/02 04:25:39;;;;;;;3.72;2.60;;;;;;;15.31;85.01;97491.34;1699242;84;21102;-77
2021/08/02 04:28:05;;;;;;;4.90;2.70;;;;;;;15.28;85.02;97497.43;1699156;84;20907;-73
2021/08/02 04:30:31;;;;;;;3.98;2.33;;;;;;;15.28;84.63;97504.25;1699321;83;20986;-78
2021/08/02 04:32:57;;;;;;;3.37;2.02;;;;;;;15.24;84.54;97511.50;1699404;83;20890;-73
2021/08/02 04:35:23;;;;;;;4.17;2.15;;;;;;;15.25;84.60;97513.09;1698843;83;20862;-73
2021/08/02 04:37:49;;;;;;;3.77;2.33;;;;;;;15.29;84.63;97520.06;1699222;83;21338;-73
2021/08/02 04:40:15;;;;;;;7.40;2.92;;;;;;;15.30;84.49;97518.41;1699008;83;20867;-78
2021/08/02 04:42:41;;;;;;;4.75;2.98;;;;;;;15.33;84.52;97521.84;1699278;84;20863;-73
2021/08/02 04:45:07;;;;;;;5.47;2.37;;;;;;;15.36;84.51;97523.91;1699007;84;20890;-73
2021/08/02 04:47:33;;;;;;;2.75;2.05;;;;;;;15.38;84.33;97526.31;1699328;84;20959;-78
2021/08/02 04:49:59;;;;;;;6.35;2.17;;;;;;;15.42;84.29;97525.36;1699163;84;22001;-77
2021/08/02 04:52:25;;;;;;;4.83;2.40;;;;;;;15.45;84.12;97528.80;1699196;83;20918;-78
2021/08/02 04:54:51;;;;;;;2.58;2.10;;;;;;;15.48;83.75;97532.84;1699021;84;20949;-74
2021/08/02 04:57:17;;;;;;;6.53;2.70;;;;;;;15.51;83.62;97533.55;1698985;83;20983;-78
2021/08/02 04:59:43;;;;;;;5.92;2.67;;;;;;;15.56;83.57;97540.22;1699199;84;20852;-73
2021/08/02 05:02:09;;;;;;;5.08;2.30;;;;;;;15.60;83.08;97540.36;1699243;84;21333;-73
2021/08/02 05:04:36;;;;;;;3.33;2.30;;;;;;;15.59;83.37;97551.05;1699040;83;20887;-78
2021/08/02 05:07:02;;;;;;;3.27;2.37;;;;;;;15.63;83.41;97546.56;1699075;84;21049;-73
2021/08/02 05:09:28;;;;;;;3.77;2.52;;;;;;;15.64;83.31;97546.26;1699082;84;20983;-74
2021/08/02 05:11:54;;;;;;;4.72;2.12;;;;;;;15.66;83.32;97554.13;1699284;84;20847;-74
2021/08/02 05:14:19;;;;;;;5.08;3.40;;;;;;;15.68;83.33;97560.05;1699243;84;21090;-74
2021/08/02 05:16:45;;;;;;;3.98;2.55;;;;;;;15.69;83.39;97557.00;1699114;84;20838;-75
2021/08/02 05:19:12;;;;;;;4.60;2.37;;;;;;;15.72;83.29;97563.73;1699103;84;21502;-77
2021/08/02 05:21:38;;;;;;;3.50;2.27;;;;;;;15.72;83.01;97565.93;1699237;84;21070;-74
2021/08/02 05:24:05;;;;;;;4.90;2.15;;;;;;;15.76;82.98;97562.77;1699064;84;20971;-77
2021/08/02 05:26:31;;;;;;;3.72;2.60;;;;;;;15.81;82.74;97563.18;1699164;84;21046;-77
2021/08/02 05:28:57;;;;;;;4.80;2.75;;;;;;;15.83;82.35;97564.22;1698952;84;20911;-75
2021/08/02 05:31:23;;;;;;;3.95;2.40;;;;;;;15.84;82.22;97567.19;1699313;82;21014;-75
2021/08/02 05:33:49;;;;;;;4.08;2.67;;;;;;;15.84;82.03;97572.64;1698925;84;21481;-77
2021/08/02 05:36:15;;;;;;;3.15;2.25;;;;;;;15.82;81.92;97571.61;1706741;83;20925;-77
2021/08/02 05:38:41;;;;;;;3.85;2.70;;;;;;;15.83;82.05;97575.95;1706882;82;21169;-77
2021/08/02 05:41:08;;;;;;;3.42;2.17;;;;;;;15.84;81.96;97573.45;1707091;82;20975;-74
2021/08/02 05:43:34;;;;;;;3.47;2.62;;;;;;;15.83;82.08;97577.31;1706853;84;21348;-74
2021/08/02 05:46:00;;;;;;;5.28;2.37;;;;;;;15.83;81.93;97577.31;1707031;84;20937;-75
2021/08/02 05:48:26;;;;;;;3.90;2.33;;;;;;;15.80;81.99;97585.56;1706989;84;20847;-76
2021/08/02 05:50:52;;;;;;;9.55;4.37;;;;;;;15.82;82.21;97577.64;1706727;84;21211;-77
2021/08/02 05:53:18;;;;;;;6.58;3.92;;;;;;;15.84;82.22;97580.84;1706878;82;20854;-75
2021/08/02 05:55:44;;;;;;;8.33;3.33;;;;;;;15.84;82.12;97584.94;1706615;84;20913;-77
2021/08/02 05:58:11;;;;;;;9.65;3.80;;;;;;;15.83;82.09;97588.23;1706848;83;20970;-74
2021/08/02 06:00:38;;;;;;;6.28;2.62;;;;;;;15.82;82.12;97589.38;1706805;83;21458;-75
2021/08/02 06:03:04;;;;;;;7.67;2.50;;;;;;;15.80;81.87;97599.80;1686784;84;21010;-78
2021/08/02 06:05:30;;;;;;;4.72;2.67;;;;;;;15.76;82.04;97607.05;1706949;83;20910;-75
2021/08/02 06:07:56;;;;;;;4.72;3.08;;;;;;;15.74;82.12;97603.84;1706688;83;20878;-75
2021/08/02 06:10:22;;;;;;;5.92;2.87;;;;;;;15.70;82.02;97602.30;1686844;84;20862;-78
2021/08/02 06:12:48;;;;;;;4.33;2.33;;;;;;;15.70;82.10;97604.23;1707067;83;21041;-75
2021/08/02 06:15:15;;;;;;;4.80;2.47;;;;;;;15.65;82.02;97607.94;1706972;83;22020;-74
2021/08/02 06:17:42;;;;;;;2.70;2.33;;;;;;;15.68;82.09;97607.85;1706797;83;21010;-74
2021/08/02 06:20:09;;;;;;;5.25;3.00;;;;;;;15.66;82.08;97615.01;1706937;83;21348;-78
2021/08/02 06:22:35;;;;;;;3.37;2.72;;;;;;;15.71;82.33;97608.00;1706775;83;20931;-78
2021/08/02 06:25:01;;;;;;;3.22;2.05;;;;;;;15.75;82.18;97616.37;1706990;82;21028;-78
2021/08/02 06:27:30;;;;;;;5.35;2.70;;;;;;;15.73;82.36;97608.50;1706825;84;21797;-74
2021/08/02 06:29:55;;;;;;;3.58;2.40;;;;;;;15.82;82.35;97613.16;1686814;84;21025;-78
2021/08/02 06:32:21;;;;;;;4.53;3.52;;;;;;;15.92;82.09;97612.25;1706949;84;20965;-78
2021/08/02 06:34:46;;;;;;;10.15;3.55;;;;;;;16.04;81.84;97611.00;1706939;82;20950;-78
2021/08/02 06:37:13;;;;;;;7.87;3.15;;;;;;;16.15;81.70;97614.22;1712047;83;21002;-75
2021/08/02 06:39:39;;;;;;;9.65;3.00;;;;;;;16.10;81.61;97613.58;1712044;83;21166;-78
2021/08/02 06:42:05;;;;;;;4.80;2.40;;;;;;;16.16;81.47;97624.59;1707550;82;20886;-74
2021/08/02 06:44:31;;;;;;;5.40;2.42;;;;;;;16.04;81.64;97626.03;1707000;83;20978;-78
2021/08/02 06:46:57;;;;;;;4.60;2.60;;;;;;;16.05;81.98;97630.37;1706662;84;21410;-78
2021/08/02 06:49:23;;;;;;;6.35;2.52;;;;;;;16.04;81.94;97636.97;1706942;82;20854;-74
2021/08/02 06:51:49;;;;;;;3.77;2.52;;;;;;;15.99;82.08;97636.35;1707173;82;21308;-78
2021/08/02 06:54:15;;;;;;;4.10;3.47;;;;;;;15.99;81.97;97635.78;1706841;82;21528;-74
2021/08/02 06:56:42;;;;;;;4.55;3.45;;;;;;;16.00;81.89;97638.76;1706841;83;20894;-75
2021/08/02 06:59:08;;;;;;;4.03;3.12;;;;;;;16.03;81.85;97643.56;1706668;83;20993;-74
2021/08/02 07:01:34;;;;;;;5.40;3.12;;;;;;;16.08;81.65;97641.23;1707108;84;21603;-78
2021/08/02 07:04:00;;;;;;;3.58;2.67;;;;;;;16.14;81.34;97637.19;1706862;83;21142;-74
2021/08/02 07:06:26;;;;;;;3.47;2.75;;;;;;;16.15;81.52;97641.55;1707292;83;20882;-75
2021/08/02 07:08:52;;;;;;;7.60;4.03;;;;;;;16.25;81.84;97642.56;1706876;84;21020;-78
2021/08/02 07:11:18;;;;;;;6.17;4.83;;;;;;;16.38;81.64;97647.58;1707020;83;20934;-77
2021/08/02 07:13:43;;;;;;;7.12;3.77;;;;;;;16.45;81.52;97641.62;1706971;84;20937;-78
2021/08/02 07:16:09;;;;;;;3.80;3.10;;;;;;;16.54;81.56;97643.19;1706967;84;21940;-78
2021/08/02 07:18:35;;;;;;;5.72;3.15;;;;;;;16.76;81.58;97644.11;1706811;84;21583;-78
2021/08/02 07:21:01;;;;;;;6.17;3.95;;;;;;;17.00;80.73;97642.92;1706966;83;20950;-75
2021/08/02 07:23:27;;;;;;;4.30;3.60;;;;;;;17.12;80.69;97641.66;1706953;83;20975;-78
2021/08/02 07:25:53;;;;;;;5.12;3.72;;;;;;;17.24;80.38;97646.98;1707035;82;21528;-79
2021/08/02 07:28:19;;;;;;;5.03;2.90;;;;;;;17.33;80.05;97642.25;1706895;84;21166;-74
2021/08/02 07:30:45;;;;;;;3.85;3.05;;;;;;;17.37;79.54;97643.20;1706954;83;20937;-78
2021/08/02 07:33:11;;;;;;;6.40;3.27;;;;;;;17.33;79.71;97647.72;1707073;83;20873;-78
2021/08/02 07:35:37;;;;;;;4.60;4.08;;;;;;;17.30;79.22;97653.30;1705323;83;20850;-78
2021/08/02 07:38:03;;;;;;;5.97;4.25;;;;;;;17.18;79.37;97648.56;1699167;83;20946;-78
2021/08/02 07:40:29;;;;;;;6.53;4.65;;;;;;;17.11;79.05;97649.64;1699246;83;21153;-78
2021/08/02 07:42:55;;;;;;;4.30;3.55;;;;;;;17.03;78.66;97658.70;1699176;84;20945;-78
2021/08/02 07:45:21;;;;;;;8.48;7.58;;;;;;;17.03;79.02;97657.90;1699263;82;21371;-75
2021/08/02 07:47:47;;;;;;;6.85;4.87;;;;;;;17.07;79.05;97660.20;1699073;84;20966;-74
2021/08/02 07:50:15;;;;;;;5.35;3.98;;;;;;;17.13;79.28;97656.15;1699233;84;20982;-78
2021/08/02 07:52:41;;;;;;;4.58;3.52;;;;;;;17.23;79.02;97664.55;1699104;83;21083;-77
2021/08/02 07:55:09;;;;;;;4.03;3.45;;;;;;;17.24;79.35;97668.88;1699205;84;21332;-78
2021/08/02 07:57:35;;;;;;;8.58;6.67;;;;;;;17.30;79.31;97668.94;1699103;82;21010;-74
2021/08/02 08:00:03;;;;;;;4.15;3.40;;;;;;;17.38;79.32;97672.98;1699357;83;20955;-74
2021/08/02 08:02:29;;;;;;;5.37;4.08;;;;;;;17.51;78.50;97677.95;1699415;83;21033;-75
2021/08/02 08:04:55;;;;;;;11.03;8.40;;;;;;;17.43;79.03;97674.71;1699230;84;21266;-75
2021/08/02 08:07:21;;;;;;;11.35;7.95;;;;;;;17.48;79.09;97680.00;1699249;84;21616;-78
2021/08/02 08:09:47;;;;;;;9.23;7.53;;;;;;;17.47;78.52;97683.88;1699169;84;20855;-79
2021/08/02 08:12:13;;;;;;;6.65;5.95;;;;;;;17.52;78.78;97682.87;1699288;83;20950;-77
2021/08/02 08:14:39;;;;;;;5.85;4.70;;;;;;;17.59;78.61;97688.05;1699040;84;20929;-78
2021/08/02 08:17:04;;;;;;;6.37;5.50;;;;;;;17.58;78.92;97693.88;1699296;84;21314;-75
2021/08/02 08:19:31;;;;;;;5.87;4.83;;;;;;;17.69;78.87;97697.84;1699107;84;20827;-75
2021/08/02 08:21:58;;;;;;;5.25;4.70;;;;;;;17.87;78.72;97700.71;1699257;84;21041;-79
2021/08/02 08:24:24;;;;;;;5.85;3.95;;;;;;;17.91;77.87;97701.63;1699331;83;21018;-76
2021/08/02 08:26:50;;;;;;;5.65;4.83;;;;;;;17.89;77.37;97699.00;1699268;84;21430;-79
2021/08/02 08:29:16;;;;;;;4.62;4.10;;;;;;;18.14;77.19;97705.40;1699250;83;21873;-75
2021/08/02 08:31:42;;;;;;;7.53;4.08;;;;;;;18.49;76.13;97708.61;1699197;84;21619;-76
2021/08/02 08:34:08;;;;;;;4.22;3.37;;;;;;;18.69;74.93;97707.76;1699029;84;20894;-76
2021/08/02 08:36:34;;;;;;;4.95;3.90;;;;;;;18.69;74.66;97702.84;1706783;82;20858;-79
2021/08/02 08:39:00;;;;;;;6.00;3.62;;;;;;;18.70;74.29;97706.61;1706833;83;21528;-76
2021/08/02 08:41:26;;;;;;;4.05;3.65;;;;;;;18.87;74.14;97711.91;1706779;82;21187;-78
2021/08/02 08:43:53;;;;;;;5.25;4.75;;;;;;;19.11;72.76;97708.38;1706904;83;21449;-79
2021/08/02 08:46:22;;;;;;;6.30;4.15;;;;;;;19.80;71.85;97707.20;1706889;82;21041;-76
2021/08/02 08:48:48;;;;;;;4.30;3.90;;;;;;;21.92;65.51;97713.09;1706666;83;20970;-79
2021/08/02 08:51:14;;;;;;;4.53;3.25;;;;;;;22.80;64.75;97704.98;1710535;83;21486;-76
2021/08/02 08:53:44;;;;;;;5.75;4.70;;;;;;;23.30;59.58;97699.74;1706954;83;21158;-79
2021/08/02 08:56:15;;;;;;;6.28;3.37;;;;;;;22.57;61.97;97691.17;1706912;83;21022;-75
2021/08/02 08:58:44;;;;;;;4.70;3.27;;;;;;;22.15;61.78;97688.39;1704860;84;20961;-76
2021/08/02 09:01:10;;;;;;;4.33;3.92;;;;;;;22.00;61.83;97685.88;1706990;82;20938;-79
2021/08/02 09:03:36;;;;;;;5.62;4.25;;;;;;;22.09;62.28;97682.35;1707003;83;20819;-76
2021/08/02 09:06:04;;;;;;;7.97;7.17;;;;;;;22.12;63.24;97678.86;1707029;83;21149;-76
2021/08/02 09:08:30;;;;;;;7.87;5.25;;;;;;;22.08;63.50;97667.55;1706975;83;20958;-76
2021/08/02 09:11:01;;;;;;;6.53;4.42;;;;;;;21.85;63.00;97675.70;1706754;83;20945;-75
2021/08/02 09:13:31;;;;;;;6.47;4.15;;;;;;;21.78;61.30;97675.55;1706963;84;20971;-76
2021/08/02 09:15:57;;;;;;;5.67;3.77;;;;;;;22.47;61.35;97671.88;1706917;83;20966;-77
2021/08/02 09:18:23;;;;;;;3.70;3.02;;;;;;;24.60;57.63;97672.61;1706969;83;21317;-75
2021/08/02 09:21:00;;;;;;;3.60;3.30;;;;;;;25.74;54.10;97670.81;1710561;83;21630;-75
2021/08/02 09:23:27;;;;;;;3.62;3.22;;;;;;;25.72;54.30;97671.20;1706883;83;20934;-75
2021/08/02 09:25:55;;;;;;;4.25;3.05;;;;;;;25.73;54.23;97669.23;1706911;83;20989;-75
2021/08/02 09:28:22;;;;;;;;;;;;;;;25.54;52.56;97668.27;1709418;84;20985;-79
2021/08/02 09:31:00;;;;;;;5.35;3.30;;;;;;;24.89;52.87;97664.80;1706956;83;21124;-80
2021/08/02 09:33:32;;;;;;;9.38;3.95;;;;;;;26.10;51.35;97660.67;1707063;84;20939;-79
2021/08/02 09:36:02;;;;;;;3.80;3.30;;;;;;;24.88;52.27;97661.83;1707703;83;21005;-76
2021/08/02 09:38:28;;;;;;;3.75;3.17;;;;;;;24.39;50.04;97667.66;1714969;83;21480;-77
2021/08/02 09:40:56;;;;;;;4.17;3.27;;;;;;;23.60;52.82;97674.96;1715011;83;20898;-79
2021/08/02 09:43:25;;;;;;;5.50;3.70;;;;;;;23.11;54.40;97679.11;1714642;83;22011;-77
2021/08/02 09:45:57;;;;;;;3.90;3.50;;;;;;;22.55;55.35;97677.50;1706837;84;20966;-77
2021/08/02 09:48:40;;;;;;;5.83;3.58;;;;;;;22.14;56.54;97687.59;1706822;83;21419;-76
2021/08/02 09:51:12;;;;;;;4.97;3.30;;;;;;;21.35;57.11;97686.41;1706407;83;20930;-79
2021/08/02 09:53:46;;;;;;;3.72;2.87;;;;;;;22.35;55.17;97689.96;1705937;83;21017;-78
2021/08/02 09:56:18;;;;;;;3.85;2.95;;;;;;;22.51;55.68;97682.39;1706897;83;21295;-78
2021/08/02 09:58:45;;;;;;;3.47;2.87;;;;;;;22.59;55.37;97686.08;1706805;84;21012;-79
2021/08/02 10:01:16;;;;;;;5.28;3.30;;;;;;;23.77;54.42;97685.27;1706815;83;20942;-79
2021/08/02 10:03:42;;;;;;;3.87;3.12;;;;;;;23.46;53.79;97691.30;1706821;82;21422;-78
2021/08/02 10:06:11;;;;;;;60.92;49.20;;;;;;;23.08;54.62;97693.09;1706875;84;20990;-75
2021/08/02 10:08:36;;;;;;;6.60;5.00;;;;;;;22.41;53.81;97683.58;1707073;84;21250;-78
2021/08/02 10:11:05;;;;;;;6.30;5.22;;;;;;;21.99;55.58;97683.48;1706881;84;21001;-78
2021/08/02 10:13:34;;;;;;;4.42;3.05;;;;;;;23.02;55.16;97690.42;1706949;83;21037;-75
2021/08/02 10:16:03;;;;;;;3.62;3.33;;;;;;;23.99;53.00;97682.17;1687064;84;22005;-76
2021/08/02 10:18:29;;;;;;;3.50;3.17;;;;;;;24.47;51.69;97686.74;1706899;84;21013;-79
2021/08/02 10:21:08;;;;;;;3.40;2.87;;;;;;;26.65;46.79;97683.47;1686524;84;21771;-76
2021/08/02 10:23:34;;;;;;;2.90;2.45;;;;;;;25.73;48.58;97684.48;1706825;83;20911;-76
2021/08/02 10:26:00;;;;;;;4.03;2.17;;;;;;;26.36;47.93;97685.36;1706995;84;20990;-75
2021/08/02 10:28:26;;;;;;;3.05;2.33;;;;;;;25.36;48.67;97690.14;1706788;83;20985;-80
2021/08/02 10:31:05;;;;;;;3.08;2.75;;;;;;;26.18;48.11;97688.66;1706830;83;21018;-76
2021/08/02 10:33:37;;;;;;;3.77;2.30;;;;;;;28.87;43.36;97680.41;1706530;84;21811;-80
2021/08/02 10:36:17;;;;;;;2.55;2.25;;;;;;;29.48;40.76;97679.94;1706841;83;20954;-78
2021/08/02 10:38:49;;;;;;;5.12;2.35;;;;;;;28.86;39.60;97674.66;1706736;84;20914;-80
2021/08/02 10:41:32;;;;;;;2.50;2.20;;;;;;;29.29;39.23;97675.73;1706881;83;21006;-77
2021/08/02 10:43:59;;;;;;;3.45;2.10;;;;;;;27.69;41.83;97677.37;1706755;84;20903;-79
2021/08/02 10:46:27;;;;;;;2.83;2.37;;;;;;;26.82;43.88;97681.11;1703675;84;21932;-75
2021/08/02 10:48:55;;;;;;;4.97;2.25;;;;;;;26.94;43.11;97669.63;1706825;84;21065;-75
2021/08/02 10:51:23;;;;;;;;;;;;;;;28.88;35.93;97663.08;1709240;83;20974;-79
2021/08/02 10:54:01;;;;;;;2.90;2.25;;;;;;;31.25;36.49;97661.37;1706867;82;20161;-79
2021/08/02 10:56:30;;;;;;;3.08;1.62;;;;;;;29.54;37.99;97666.38;1706687;84;20958;-80
2021/08/02 10:58:57;;;;;;;5.87;2.72;;;;;;;28.07;41.21;97666.52;1706719;82;21301;-80
2021/08/02 11:01:26;;;;;;;5.30;2.45;;;;;;;26.88;40.99;97661.47;1706746;83;20919;-80
2021/08/02 11:03:51;;;;;;;4.65;2.70;;;;;;;26.32;43.11;97660.95;1706789;83;21014;-76
2021/08/02 11:06:17;;;;;;;6.72;2.85;;;;;;;25.64;43.60;97662.61;1707068;84;20992;-80
2021/08/02 11:08:53;;;;;;;3.50;2.72;;;;;;;24.93;45.01;97663.43;1706962;84;20843;-76
2021/08/02 11:11:29;;;;;;;3.27;2.55;;;;;;;24.22;46.27;97671.80;1706761;83;21124;-78
2021/08/02 11:14:15;;;;;;;4.25;3.25;;;;;;;23.70;47.75;97677.66;1706661;84;21018;-79
2021/08/02 11:16:49;;;;;;;5.78;3.02;;;;;;;23.31;49.19;97683.37;1706740;84;21231;-79
2021/08/02 11:19:21;;;;;;;6.28;3.05;;;;;;;22.80;50.87;97680.12;1707042;83;21367;-76
2021/08/02 11:22:01;;;;;;;6.10;3.47;;;;;;;22.12;54.98;97682.20;1706786;83;21035;-78
2021/08/02 11:24:37;;;;;;;7.50;3.75;;;;;;;21.64;57.14;97696.16;1686684;84;21169;-75
2021/08/02 11:27:08;;;;;;;5.55;3.47;;;;;;;21.44;58.22;97696.45;1706703;84;20950;-75
2021/08/02 11:29:36;;;;;;;8.48;3.47;;;;;;;21.30;57.04;97700.48;1706759;83;21402;-75
2021/08/02 11:32:09;;;;;;;6.95;3.85;;;;;;;21.11;58.78;97705.32;1706641;84;20970;-75
2021/08/02 11:34:35;;;;;;;4.37;3.98;;;;;;;20.72;60.29;97713.16;1707099;83;20998;-78
2021/08/02 11:37:14;;;;;;;4.22;3.72;;;;;;;20.48;61.23;97724.52;1708744;82;21323;-75
2021/08/02 11:39:49;;;;;;;4.53;3.50;;;;;;;20.28;63.71;97728.25;1715170;83;21013;-75
2021/08/02 11:42:17;;;;;;;6.60;3.20;;;;;;;20.00;64.58;97733.74;1715713;83;20962;-75